North Freedom, Wisconsin
Current Conditions -  °F | °C
As of 12:55 PM on Friday 21 Nov 2014 (Local Time) from KDLL Reporting Station
Clear Clear  
Wind Chill: 18°   Ceiling: Unl
Heat Index: 28°   Visibility: 10mi
Dew Point:   Wind: 13mph
Humidity: 32%   Direction: 200°SSW
Pressure: 30.26"   Gusts: NA
Location:  43.46°N, 89.87°W
Report Text: KDLL 211855Z AUTO 20011KT 10SM CLR M02/M17 A3026 RMK AO2 T10201169
Loading
Personal Weather Stations






























Interactive Weather Map New forecast layout! Learn more

10-Day Weather Forecast

Advertisements
Track Severe Weather on mobile